createdAt,value
2023-02-13T00:00:23.122Z,37.00
2023-02-13T00:03:11.002Z,29.95
2023-02-13T00:05:59.031Z,32.70
2023-02-13T00:08:48.185Z,32.67
2023-02-13T00:11:35.744Z,35.55
2023-02-13T00:14:23.355Z,28.08
2023-02-13T00:17:11.249Z,30.20
2023-02-13T00:19:59.205Z,28.42
2023-02-13T00:22:46.542Z,32.35
2023-02-13T00:25:35.502Z,31.42
2023-02-13T00:28:23.504Z,31.30
2023-02-13T00:31:17.151Z,33.78
2023-02-13T00:36:52.482Z,31.42
2023-02-13T00:39:39.824Z,32.08
2023-02-13T00:42:29.072Z,29.15
2023-02-13T00:45:17.247Z,30.27
2023-02-13T00:48:04.672Z,29.17
2023-02-13T00:50:52.816Z,29.00
2023-02-13T00:53:41.127Z,28.10
2023-02-13T00:56:29.329Z,31.25
2023-02-13T00:59:18.783Z,28.77
2023-02-13T01:02:06.339Z,31.50
2023-02-13T01:04:54.139Z,30.27
2023-02-13T01:07:43.073Z,28.67
2023-02-13T01:10:30.866Z,30.70
2023-02-13T01:13:19.839Z,30.05
2023-02-13T01:16:09.518Z,29.02
2023-02-13T01:18:57.430Z,29.45
2023-02-13T01:21:45.363Z,37.33
2023-02-13T01:24:34.102Z,33.08
2023-02-13T01:27:21.835Z,33.35
2023-02-13T01:30:13.762Z,29.17
2023-02-13T01:33:03.137Z,31.70
2023-02-13T01:35:50.874Z,31.17
2023-02-13T01:38:39.181Z,30.92
2023-02-13T01:41:29.018Z,34.15
2023-02-13T01:44:54.051Z,31.48
2023-02-13T01:47:45.969Z,30.02
2023-02-13T01:50:42.270Z,29.27
2023-02-13T01:53:36.766Z,30.83
2023-02-13T01:56:32.822Z,32.47
2023-02-13T01:59:28.195Z,29.75
2023-02-13T02:02:17.686Z,29.85
2023-02-13T02:05:08.788Z,28.60
2023-02-13T02:08:01.760Z,24.92
2023-02-13T02:10:49.375Z,26.80
2023-02-13T02:13:38.733Z,27.42
2023-02-13T02:16:28.052Z,28.33
2023-02-13T02:19:33.897Z,26.30
2023-02-13T02:22:59.796Z,23.52
2023-02-13T02:26:27.354Z,23.02
2023-02-13T02:29:58.418Z,23.23
2023-02-13T02:33:09.847Z,25.40
2023-02-13T02:36:16.745Z,22.80
2023-02-13T02:39:16.177Z,23.60
2023-02-13T02:42:21.175Z,24.35
2023-02-13T02:45:20.848Z,24.13
2023-02-13T02:48:40.460Z,24.77
2023-02-13T02:51:39.468Z,25.33
2023-02-13T02:54:49.679Z,24.80
2023-02-13T02:58:04.286Z,24.20
2023-02-13T03:01:12.801Z,22.75
2023-02-13T03:04:26.458Z,24.08
2023-02-13T03:07:18.682Z,22.25
2023-02-13T03:10:30.383Z,23.50
2023-02-13T03:13:40.429Z,23.25
2023-02-13T03:16:46.222Z,21.77
2023-02-13T03:20:13.867Z,22.02
2023-02-13T03:23:24.174Z,23.75
2023-02-13T03:26:50.120Z,24.50
2023-02-13T03:30:08.842Z,19.77
2023-02-13T03:33:28.482Z,22.05
2023-02-13T03:36:51.614Z,21.95
2023-02-13T03:39:54.851Z,22.17
2023-02-13T03:42:49.833Z,24.35
2023-02-13T03:45:54.728Z,22.27
2023-02-13T03:49:02.384Z,23.60
2023-02-13T03:51:58.390Z,20.13
2023-02-13T03:55:11.718Z,22.60
2023-02-13T04:01:13.335Z,21.55
2023-02-13T04:04:12.976Z,19.55
2023-02-13T04:07:07.446Z,19.20
2023-02-13T04:09:54.719Z,18.83
2023-02-13T04:12:58.912Z,19.77
2023-02-13T04:15:53.678Z,16.90
2023-02-13T04:18:42.381Z,17.83
2023-02-13T04:21:33.922Z,16.80
2023-02-13T04:24:23.044Z,18.38
2023-02-13T04:27:15.203Z,15.55
2023-02-13T04:30:03.147Z,13.52
2023-02-13T04:32:51.788Z,15.68
2023-02-13T04:35:39.663Z,12.02
2023-02-13T04:38:27.025Z,13.55
2023-02-13T04:41:18.669Z,12.80
2023-02-13T04:44:08.628Z,15.43
2023-02-13T04:46:56.573Z,14.27
2023-02-13T04:49:44.174Z,13.68
2023-02-13T04:52:31.834Z,14.23
2023-02-13T04:55:19.778Z,14.02
2023-02-13T04:58:09.449Z,12.88
2023-02-13T05:00:57.940Z,13.35
2023-02-13T05:03:45.954Z,13.98
2023-02-13T05:06:33.698Z,12.15
2023-02-13T05:09:21.707Z,13.75
2023-02-13T05:12:11.733Z,12.23
2023-02-13T05:15:01.149Z,12.32
2023-02-13T05:17:48.810Z,12.77
2023-02-13T05:20:36.278Z,10.43
2023-02-13T05:23:22.873Z,9.77
2023-02-13T05:26:10.047Z,10.82
2023-02-13T05:29:15.440Z,11.40
2023-02-13T05:32:05.002Z,9.68
2023-02-13T05:34:52.882Z,8.30
2023-02-13T05:37:40.372Z,10.07
2023-02-13T05:40:27.857Z,10.85
2023-02-13T05:43:15.839Z,10.05
2023-02-13T05:46:06.276Z,9.27
2023-02-13T05:48:55.516Z,8.27
2023-02-13T05:51:43.559Z,10.52
2023-02-13T05:54:31.128Z,7.32
2023-02-13T05:57:18.999Z,9.43
2023-02-13T06:00:08.553Z,9.30
2023-02-13T06:02:56.005Z,7.68
2023-02-13T06:05:45.061Z,8.88
2023-02-13T06:08:32.744Z,9.32
2023-02-13T06:11:20.976Z,8.85
2023-02-13T06:14:08.615Z,9.85
2023-02-13T06:16:56.058Z,7.90
2023-02-13T06:19:43.613Z,8.27
2023-02-13T06:22:32.572Z,8.57
2023-02-13T06:25:22.721Z,10.07
2023-02-13T06:28:10.622Z,9.32
2023-02-13T06:31:02.150Z,9.85
2023-02-13T06:33:49.762Z,11.05
2023-02-13T06:36:38.630Z,9.55
2023-02-13T06:39:27.772Z,10.25
2023-02-13T06:42:15.455Z,8.23
2023-02-13T06:45:03.298Z,8.23
2023-02-13T06:47:51.712Z,8.93
2023-02-13T06:50:39.589Z,9.57
2023-02-13T06:53:27.587Z,9.02
2023-02-13T06:56:17.059Z,8.32
2023-02-13T06:59:04.803Z,8.10
2023-02-13T07:01:52.646Z,8.55
2023-02-13T07:04:43.982Z,8.93
2023-02-13T07:07:35.256Z,7.97
2023-02-13T07:10:27.628Z,7.65
2023-02-13T07:13:17.072Z,9.77
2023-02-13T07:16:05.267Z,10.00
2023-02-13T07:18:53.091Z,8.60
2023-02-13T07:21:40.945Z,15.35
2023-02-13T07:24:28.484Z,9.88
2023-02-13T07:27:15.851Z,9.80
2023-02-13T07:30:05.285Z,8.98
2023-02-13T07:32:52.964Z,8.40
2023-02-13T07:35:42.023Z,8.50
2023-02-13T07:38:29.373Z,8.57
2023-02-13T07:41:16.812Z,10.48
2023-02-13T07:44:04.583Z,8.82
2023-02-13T07:46:53.556Z,8.57
2023-02-13T07:49:42.264Z,10.75
2023-02-13T07:52:29.760Z,8.40
2023-02-13T07:55:17.482Z,14.70
2023-02-13T07:58:05.165Z,8.18
2023-02-13T08:00:53.284Z,9.55
2023-02-13T08:03:42.912Z,20.42
2023-02-13T08:06:30.314Z,11.68
2023-02-13T08:09:40.974Z,12.45
2023-02-13T08:12:28.908Z,13.60
2023-02-13T08:15:17.370Z,43.30
2023-02-13T08:18:05.669Z,18.48
2023-02-13T08:20:54.385Z,9.95
2023-02-13T08:23:41.878Z,9.75
2023-02-13T08:26:32.315Z,23.95
2023-02-13T08:29:20.072Z,10.32
2023-02-13T08:32:08.910Z,41.08
2023-02-13T08:34:56.590Z,14.48
2023-02-13T08:37:54.649Z,8.77
2023-02-13T08:40:53.625Z,42.45
2023-02-13T08:43:44.142Z,19.83
2023-02-13T08:46:34.311Z,9.65
2023-02-13T08:49:23.437Z,23.73
2023-02-13T08:52:11.182Z,24.05
2023-02-13T08:54:59.960Z,9.45
2023-02-13T08:57:47.883Z,9.30
2023-02-13T09:00:36.354Z,29.33
2023-02-13T09:03:24.096Z,29.02
2023-02-13T09:06:11.711Z,20.23
2023-02-13T09:09:00.838Z,36.63
2023-02-13T09:11:50.981Z,29.95
2023-02-13T09:14:42.476Z,7.43
2023-02-13T09:17:30.041Z,9.02
2023-02-13T09:20:17.861Z,8.52
2023-02-13T09:23:05.556Z,24.65
2023-02-13T09:25:53.141Z,10.75
2023-02-13T09:28:43.455Z,9.90
2023-02-13T09:31:31.761Z,10.35
2023-02-13T09:34:19.328Z,13.00
2023-02-13T09:37:06.872Z,10.45
2023-02-13T09:39:54.618Z,9.27
2023-02-13T09:42:42.486Z,13.40
2023-02-13T09:45:31.740Z,12.18
2023-02-13T09:48:30.804Z,9.93
2023-02-13T09:51:23.350Z,10.82
2023-02-13T09:54:19.024Z,9.93
2023-02-13T09:57:17.986Z,14.63
2023-02-13T10:00:16.382Z,10.23
2023-02-13T10:03:28.756Z,22.73
2023-02-13T10:06:25.915Z,13.27
2023-02-13T10:09:28.449Z,19.95
2023-02-13T10:12:38.494Z,20.42
2023-02-13T10:15:40.647Z,12.35
2023-02-13T10:18:44.163Z,21.08
2023-02-13T10:21:39.934Z,38.45
2023-02-13T10:24:40.060Z,27.73
2023-02-13T10:27:33.773Z,10.52
2023-02-13T10:30:27.295Z,17.70
2023-02-13T10:33:22.020Z,13.07
2023-02-13T10:36:22.038Z,11.55
2023-02-13T10:39:24.981Z,9.98
2023-02-13T10:42:24.165Z,13.90
2023-02-13T10:45:30.504Z,13.55
2023-02-13T10:48:39.792Z,15.50
2023-02-13T10:51:40.986Z,14.68
2023-02-13T10:54:54.734Z,15.35
2023-02-13T10:58:05.996Z,17.05
2023-02-13T11:01:02.344Z,13.63
2023-02-13T11:04:04.897Z,16.40
2023-02-13T11:06:58.833Z,16.92
2023-02-13T11:09:52.188Z,16.33
2023-02-13T11:12:39.652Z,20.05
2023-02-13T11:15:31.653Z,18.50
2023-02-13T11:18:23.229Z,15.20
2023-02-13T11:21:21.208Z,20.55
2023-02-13T11:24:23.074Z,19.23
2023-02-13T11:27:14.865Z,49.63
2023-02-13T11:30:08.466Z,29.95
2023-02-13T11:33:01.199Z,19.00
2023-02-13T11:35:49.747Z,20.13
2023-02-13T11:38:38.032Z,20.38
2023-02-13T11:41:30.234Z,22.38
2023-02-13T11:44:26.373Z,19.53
2023-02-13T11:47:15.278Z,17.95
2023-02-13T11:50:04.051Z,16.90
2023-02-13T11:52:59.675Z,18.52
2023-02-13T11:56:06.637Z,16.70
2023-02-13T11:59:05.431Z,19.33
2023-02-13T12:02:13.698Z,17.55
2023-02-13T12:05:19.179Z,20.48
2023-02-13T12:08:11.427Z,17.88
2023-02-13T12:11:02.513Z,17.10
2023-02-13T12:13:51.549Z,18.98
2023-02-13T12:16:47.290Z,15.30
2023-02-13T12:19:42.961Z,18.70
2023-02-13T12:22:53.054Z,18.50
2023-02-13T12:26:00.258Z,17.33
2023-02-13T12:29:20.728Z,17.30
2023-02-13T12:32:22.270Z,18.08
2023-02-13T12:35:46.113Z,15.93
2023-02-13T12:38:50.601Z,16.73
2023-02-13T12:41:51.792Z,16.17
2023-02-13T12:45:17.597Z,15.45
2023-02-13T12:48:25.686Z,16.15
2023-02-13T12:51:34.882Z,14.98
2023-02-13T12:54:49.894Z,13.93
2023-02-13T12:57:59.009Z,13.70
2023-02-13T13:01:03.572Z,15.70
2023-02-13T13:04:15.553Z,12.23
2023-02-13T13:07:28.718Z,15.73
2023-02-13T13:13:43.785Z,14.10
2023-02-13T13:16:46.915Z,12.20
2023-02-13T13:19:51.090Z,11.63
2023-02-13T13:22:51.199Z,12.45
2023-02-13T13:25:52.826Z,10.45
2023-02-13T13:28:45.712Z,8.88
2023-02-13T13:31:37.834Z,12.45
2023-02-13T13:34:27.993Z,11.57
2023-02-13T13:37:29.626Z,13.15
2023-02-13T13:40:35.064Z,11.93
2023-02-13T13:43:36.685Z,11.15
2023-02-13T13:46:44.810Z,12.15
2023-02-13T13:49:53.979Z,10.77
2023-02-13T13:53:16.117Z,10.80
2023-02-13T13:56:09.419Z,9.10
2023-02-13T13:58:57.419Z,10.48
2023-02-13T14:01:46.224Z,13.05
2023-02-13T14:04:43.560Z,8.27
2023-02-13T14:07:38.991Z,7.93
2023-02-13T14:11:26.348Z,9.13
2023-02-13T14:14:52.335Z,9.20
2023-02-13T14:17:56.490Z,10.02
2023-02-13T14:20:52.146Z,8.82
2023-02-13T14:23:53.309Z,9.50
2023-02-13T14:26:43.222Z,12.75
2023-02-13T14:29:39.217Z,15.52
2023-02-13T14:32:34.259Z,10.65
2023-02-13T14:35:28.713Z,10.45
2023-02-13T14:38:26.169Z,10.75
2023-02-13T14:41:57.649Z,9.82
2023-02-13T14:44:51.100Z,10.38
2023-02-13T14:47:43.701Z,10.77
2023-02-13T14:50:43.114Z,11.93
2023-02-13T14:53:41.327Z,8.80
2023-02-13T14:56:30.553Z,9.00
2023-02-13T14:59:25.358Z,14.23
2023-02-13T15:02:24.623Z,11.32
2023-02-13T15:05:19.928Z,13.18
2023-02-13T15:08:17.131Z,8.50
2023-02-13T15:11:25.200Z,9.43
2023-02-13T15:14:31.605Z,10.55
2023-02-13T15:17:24.578Z,8.93
2023-02-13T15:20:31.509Z,12.13
2023-02-13T15:23:24.589Z,8.75
2023-02-13T15:29:29.206Z,9.82
2023-02-13T15:32:22.363Z,10.23
2023-02-13T15:35:30.091Z,9.43
2023-02-13T15:38:25.370Z,9.45
2023-02-13T15:41:19.915Z,9.75
2023-02-13T15:44:08.153Z,10.88
2023-02-13T15:47:08.026Z,10.38
2023-02-13T15:49:57.748Z,9.05
2023-02-13T15:52:46.835Z,9.50
2023-02-13T15:55:41.399Z,10.07
2023-02-13T15:58:35.848Z,9.43
2023-02-13T16:01:24.456Z,8.23
2023-02-13T16:04:17.408Z,10.40
2023-02-13T16:07:12.174Z,8.38
2023-02-13T16:10:25.477Z,8.55
2023-02-13T16:13:20.741Z,12.15
2023-02-13T16:16:11.907Z,9.40
2023-02-13T16:18:59.981Z,10.00
2023-02-13T16:21:50.122Z,9.93
2023-02-13T16:24:39.066Z,9.68
2023-02-13T16:27:29.676Z,10.18
2023-02-13T16:30:33.763Z,9.00
2023-02-13T16:33:29.596Z,10.52
2023-02-13T16:36:30.274Z,8.88
2023-02-13T16:39:24.247Z,9.65
2023-02-13T16:42:21.270Z,9.85
2023-02-13T16:45:24.955Z,9.52
2023-02-13T16:48:15.966Z,9.60
2023-02-13T16:51:03.798Z,9.68
2023-02-13T16:53:59.127Z,10.85
2023-02-13T16:56:52.402Z,14.27
2023-02-13T16:59:55.298Z,9.55
2023-02-13T17:02:43.025Z,11.63
2023-02-13T17:05:30.812Z,11.43
2023-02-13T17:08:19.910Z,10.02
2023-02-13T17:11:14.840Z,10.10
2023-02-13T17:14:03.928Z,12.13
2023-02-13T17:16:51.606Z,10.27
2023-02-13T17:19:39.321Z,12.35
2023-02-13T17:22:37.755Z,11.48
2023-02-13T17:25:29.761Z,11.70
2023-02-13T17:28:20.939Z,10.07
2023-02-13T17:31:14.020Z,12.98
2023-02-13T17:34:01.830Z,13.10
2023-02-13T17:36:49.527Z,17.60
2023-02-13T17:39:36.983Z,13.55
2023-02-13T17:42:28.018Z,12.38
2023-02-13T17:45:18.149Z,12.30
2023-02-13T17:48:07.182Z,13.05
2023-02-13T17:50:54.647Z,13.48
2023-02-13T17:53:42.143Z,11.27
2023-02-13T17:56:29.670Z,13.02
2023-02-13T17:59:17.077Z,10.60
2023-02-13T18:02:04.457Z,11.10
2023-02-13T18:04:53.788Z,13.18
2023-02-13T18:07:43.158Z,13.95
2023-02-13T18:10:34.235Z,13.55
2023-02-13T18:13:21.746Z,12.77
2023-02-13T18:16:11.051Z,13.75
2023-02-13T18:18:58.902Z,12.23
2023-02-13T18:21:47.694Z,12.52
2023-02-13T18:24:38.629Z,10.77
2023-02-13T18:27:27.072Z,10.18
2023-02-13T18:30:17.920Z,10.77
2023-02-13T18:33:05.979Z,11.60
2023-02-13T18:35:59.651Z,11.93
2023-02-13T18:38:48.523Z,12.60
2023-02-13T18:41:36.119Z,11.35
2023-02-13T18:44:28.622Z,11.93
2023-02-13T18:47:17.360Z,11.35
2023-02-13T18:50:05.750Z,13.93
2023-02-13T18:52:53.489Z,14.32
2023-02-13T18:55:42.725Z,11.73
2023-02-13T18:58:30.795Z,12.05
2023-02-13T19:01:21.486Z,12.68
2023-02-13T19:04:09.395Z,14.20
2023-02-13T19:06:57.010Z,13.68
2023-02-13T19:09:44.519Z,15.98
2023-02-13T19:12:33.336Z,12.40
2023-02-13T19:15:20.993Z,14.30
2023-02-13T19:18:08.794Z,13.10
2023-02-13T19:21:01.199Z,13.57
2023-02-13T19:23:48.730Z,15.55
2023-02-13T19:26:37.106Z,14.93
2023-02-13T19:29:26.268Z,15.20
2023-02-13T19:32:13.596Z,12.35
2023-02-13T19:35:01.363Z,14.88
2023-02-13T19:37:49.267Z,14.80
2023-02-13T19:40:37.107Z,15.63
2023-02-13T19:43:24.853Z,16.35
2023-02-13T19:46:14.194Z,17.98
2023-02-13T19:49:03.074Z,19.55
2023-02-13T19:51:51.530Z,24.88
2023-02-13T19:54:40.054Z,28.35
2023-02-13T19:57:27.484Z,30.92
2023-02-13T20:00:19.540Z,28.27
2023-02-13T20:03:09.301Z,33.20
2023-02-13T20:05:56.952Z,23.63
2023-02-13T20:08:45.404Z,28.65
2023-02-13T20:11:33.089Z,25.85
2023-02-13T20:14:20.953Z,26.15
2023-02-13T20:17:08.446Z,27.30
2023-02-13T20:20:05.247Z,26.35
2023-02-13T20:22:53.396Z,27.98
2023-02-13T20:25:41.228Z,27.80
2023-02-13T20:28:29.673Z,31.92
2023-02-13T20:31:20.548Z,38.05
2023-02-13T20:34:11.843Z,38.10
2023-02-13T20:37:03.922Z,42.92
2023-02-13T20:39:57.090Z,45.47
2023-02-13T20:45:39.540Z,38.63
2023-02-13T20:48:27.673Z,46.53
2023-02-13T20:51:25.670Z,34.78
2023-02-13T20:54:15.029Z,44.05
2023-02-13T20:57:04.665Z,42.38
2023-02-13T20:59:52.941Z,48.53
2023-02-13T21:02:41.138Z,49.83
2023-02-13T21:05:29.960Z,42.80
2023-02-13T21:08:19.782Z,37.22
2023-02-13T21:11:12.510Z,46.53
2023-02-13T21:14:04.341Z,45.55
2023-02-13T21:16:56.887Z,45.20
2023-02-13T21:19:44.434Z,47.88
2023-02-13T21:22:35.283Z,53.58
2023-02-13T21:25:24.251Z,43.05
2023-02-13T21:28:13.747Z,39.38
2023-02-13T21:31:07.901Z,38.55
2023-02-13T21:33:59.836Z,42.00
2023-02-13T21:36:48.210Z,50.55
2023-02-13T21:39:37.417Z,50.83
2023-02-13T21:42:25.351Z,35.60
2023-02-13T21:45:18.642Z,44.95
2023-02-13T21:48:09.010Z,40.60
2023-02-13T21:50:57.046Z,49.50
2023-02-13T21:53:46.978Z,46.70
2023-02-13T21:56:38.044Z,42.30
2023-02-13T21:59:25.982Z,45.97
2023-02-13T22:02:15.273Z,53.45
2023-02-13T22:05:02.893Z,38.10
2023-02-13T22:08:10.609Z,41.22
2023-02-13T22:11:00.692Z,44.70
2023-02-13T22:13:48.248Z,44.92
2023-02-13T22:16:39.051Z,47.08
2023-02-13T22:19:30.221Z,45.35
2023-02-13T22:22:17.905Z,45.53
2023-02-13T22:25:05.662Z,49.47
2023-02-13T22:27:53.347Z,50.88
2023-02-13T22:30:42.707Z,39.53
2023-02-13T22:33:30.563Z,44.30
2023-02-13T22:36:22.201Z,36.88
2023-02-13T22:39:12.083Z,39.33
2023-02-13T22:41:59.792Z,41.20
2023-02-13T22:44:47.193Z,37.75
2023-02-13T22:47:34.663Z,34.80
2023-02-13T22:50:22.919Z,47.60
2023-02-13T22:53:11.988Z,42.42
2023-02-13T22:56:00.035Z,44.40
2023-02-13T22:58:48.195Z,47.72
2023-02-13T23:01:35.715Z,37.33
2023-02-13T23:04:23.558Z,35.80
2023-02-13T23:07:12.260Z,40.47
2023-02-13T23:10:01.415Z,43.15
2023-02-13T23:12:50.120Z,46.33
2023-02-13T23:15:38.947Z,45.72
2023-02-13T23:18:26.078Z,32.83
2023-02-13T23:21:13.844Z,41.42
2023-02-13T23:24:01.522Z,46.72
2023-02-13T23:26:50.399Z,49.38
2023-02-13T23:29:37.785Z,36.53
2023-02-13T23:32:25.330Z,38.22
2023-02-13T23:35:13.158Z,33.95
2023-02-13T23:38:00.930Z,40.97
2023-02-13T23:40:48.393Z,43.58
2023-02-13T23:43:37.678Z,38.20
2023-02-13T23:46:25.364Z,34.42
2023-02-13T23:49:12.907Z,44.60
2023-02-13T23:52:00.446Z,33.85
2023-02-13T23:54:48.062Z,33.80
2023-02-13T23:57:36.618Z,36.20
